Terminal Aerodrome Forecast
Issued by NWS

Home | Current Version | Previous Version | Text Only | Print | Product List | Glossary On
Versions: 1 2 3 4 5 6 7 8 9 10 11 12 13 14 15 16 17
374
FTUS43 KICT 060758 AAA
TAFCNU
TAF AMD
KCNU 060758Z 0608/0706 VRB05KT P6SM BKN015
      TEMPO 0608/0609 1/4SM FG VV001
     FM060900 33005KT P6SM BKN015
     FM061000 34018G25KT P6SM SCT015 BKN025
     FM061200 35012G20KT P6SM SCT035
     FM062300 35006KT P6SM BKN200=

USA.gov is the U.S. government's official web portal to all federal, state and local government web resources and services.